PWSweather.com
Personal Weather Stations
Station Observations
KNJOAKLA6
Oakland, NJ 07436

Oakland, NJ 07436

Lat: 41.041, Lon: -74.231

Elevation: 280

Station Type: Davis VP 2

http://stratacolorado.com/oaknjwx/

High Low Average
Temperature 62.6°F17.0°F 43.7°F6.5°F 51.9°F11.1°F
Dew Point 55.1°F12.8°F 41.5°F5.3°F 48.8°F9.3°F
Winds 4.0 mph ENE6.4 mph ENE Calm Calm 0.2 mph 0.3 mph
Wind Gusts 13.0 mph20.9 mph -- 1.7 mph2.7 mph
Humidity 96% 71% 90%
Pressure 29.94 in1013.90 in 29.80 in1009.10 in -
Precipitation 1.02 in25.90 in - -
Hour Temp Dew Point Humidity Winds Wind Gusts Pressure Precip Precip Rate Daily Precip Total
12:00 AM 44.1°F6.7°C 41.6°F5.3°C 91% Calm Calm -- 29.94 in1013.9 mb 0.00 in0.0 mm 0.00 in/hr0.0 mm/hr 0.00 in0.0 mm
12:10 AM 44.1°F6.7°C 41.6°F5.3°C 91% Calm Calm -- 29.93 in1013.5 mb 0.00 in0.0 mm 0.00 in/hr0.0 mm/hr 0.00 in0.0 mm
12:20 AM 44.1°F6.7°C 41.6°F5.3°C 91% Calm Calm -- 29.94 in1013.9 mb 0.00 in0.0 mm 0.00 in/hr0.0 mm/hr 0.00 in0.0 mm
12:30 AM 44.1°F6.7°C 41.6°F5.3°C 91% Calm Calm -- 29.94 in1013.9 mb 0.00 in0.0 mm 0.00 in/hr0.0 mm/hr 0.00 in0.0 mm
12:40 AM 44.1°F6.7°C 41.6°F5.3°C 91% Calm Calm -- 29.94 in1013.9 mb 0.00 in0.0 mm 0.00 in/hr0.0 mm/hr 0.00 in0.0 mm
12:50 AM 44.2°F6.8°C 41.7°F5.4°C 91% Calm Calm -- 29.94 in1013.9 mb 0.00 in0.0 mm 0.00 in/hr0.0 mm/hr 0.00 in0.0 mm
01:00 AM 44.2°F6.8°C 41.7°F5.4°C 91% Calm Calm -- 29.93 in1013.5 mb 0.00 in0.0 mm 0.00 in/hr0.0 mm/hr 0.00 in0.0 mm
01:10 AM 44.3°F6.8°C 42.1°F5.6°C 92% Calm Calm -- 29.93 in1013.5 mb 0.00 in0.0 mm 0.00 in/hr0.0 mm/hr 0.00 in0.0 mm
01:20 AM 44.3°F6.8°C 42.1°F5.6°C 92% Calm Calm -- 29.92 in1013.2 mb 0.00 in0.0 mm 0.00 in/hr0.0 mm/hr 0.00 in0.0 mm
01:30 AM 44.4°F6.9°C 42.2°F5.7°C 92% Calm Calm -- 29.92 in1013.2 mb 0.00 in0.0 mm 0.00 in/hr0.0 mm/hr 0.00 in0.0 mm
01:40 AM 44.4°F6.9°C 42.2°F5.7°C 92% Calm Calm -- 29.92 in1013.2 mb 0.00 in0.0 mm 0.00 in/hr0.0 mm/hr 0.00 in0.0 mm
01:50 AM 44.4°F6.9°C 42.2°F5.7°C 92% Calm Calm -- 29.92 in1013.2 mb 0.00 in0.0 mm 0.00 in/hr0.0 mm/hr 0.00 in0.0 mm
02:00 AM 44.4°F6.9°C 42.2°F5.7°C 92% Calm Calm -- 29.92 in1013.2 mb 0.00 in0.0 mm 0.00 in/hr0.0 mm/hr 0.00 in0.0 mm
02:10 AM 44.3°F6.8°C 42.1°F5.6°C 92% Calm Calm -- 29.92 in1013.2 mb 0.00 in0.0 mm 0.00 in/hr0.0 mm/hr 0.00 in0.0 mm
02:20 AM 44.1°F6.7°C 41.9°F5.5°C 92% Calm Calm -- 29.91 in1012.9 mb 0.00 in0.0 mm 0.00 in/hr0.0 mm/hr 0.00 in0.0 mm
02:30 AM 44.0°F6.7°C 41.8°F5.4°C 92% Calm Calm -- 29.91 in1012.9 mb 0.00 in0.0 mm 0.00 in/hr0.0 mm/hr 0.00 in0.0 mm
02:40 AM 43.8°F6.6°C 41.6°F5.3°C 92% Calm Calm -- 29.91 in1012.9 mb 0.00 in0.0 mm 0.00 in/hr0.0 mm/hr 0.00 in0.0 mm
02:50 AM 43.8°F6.6°C 41.6°F5.3°C 92% Calm Calm -- 29.91 in1012.9 mb 0.00 in0.0 mm 0.00 in/hr0.0 mm/hr 0.00 in0.0 mm
03:00 AM 43.7°F6.5°C 41.5°F5.3°C 92% Calm Calm -- 29.90 in1012.5 mb 0.00 in0.0 mm 0.00 in/hr0.0 mm/hr 0.00 in0.0 mm
03:10 AM 43.7°F6.5°C 41.8°F5.4°C 93% Calm Calm -- 29.90 in1012.5 mb 0.00 in0.0 mm 0.00 in/hr0.0 mm/hr 0.00 in0.0 mm
03:20 AM 43.7°F6.5°C 41.8°F5.4°C 93% Calm Calm -- 29.90 in1012.5 mb 0.00 in0.0 mm 0.00 in/hr0.0 mm/hr 0.00 in0.0 mm
03:30 AM 43.8°F6.6°C 41.9°F5.5°C 93% Calm Calm -- 29.89 in1012.2 mb 0.00 in0.0 mm 0.00 in/hr0.0 mm/hr 0.00 in0.0 mm
03:40 AM 43.8°F6.6°C 41.9°F5.5°C 93% Calm Calm -- 29.89 in1012.2 mb 0.00 in0.0 mm 0.00 in/hr0.0 mm/hr 0.00 in0.0 mm
03:50 AM 44.0°F6.7°C 42.1°F5.6°C 93% Calm Calm -- 29.89 in1012.2 mb 0.00 in0.0 mm 0.00 in/hr0.0 mm/hr 0.00 in0.0 mm
04:00 AM 44.0°F6.7°C 42.1°F5.6°C 93% Calm Calm -- 29.89 in1012.2 mb 0.00 in0.0 mm 0.00 in/hr0.0 mm/hr 0.00 in0.0 mm
04:10 AM 44.1°F6.7°C 42.2°F5.7°C 93% Calm Calm -- 29.89 in1012.2 mb 0.00 in0.0 mm 0.00 in/hr0.0 mm/hr 0.00 in0.0 mm
04:20 AM 44.1°F6.7°C 42.2°F5.7°C 93% Calm Calm -- 29.89 in1012.2 mb 0.00 in0.0 mm 0.00 in/hr0.0 mm/hr 0.00 in0.0 mm
04:30 AM 44.1°F6.7°C 42.2°F5.7°C 93% Calm Calm -- 29.88 in1011.9 mb 0.00 in0.0 mm 0.00 in/hr0.0 mm/hr 0.00 in0.0 mm
04:40 AM 44.2°F6.8°C 42.3°F5.7°C 93% Calm Calm -- 29.88 in1011.9 mb 0.00 in0.0 mm 0.00 in/hr0.0 mm/hr 0.00 in0.0 mm
04:50 AM 44.2°F6.8°C 42.3°F5.7°C 93% Calm Calm -- 29.88 in1011.9 mb 0.00 in0.0 mm 0.00 in/hr0.0 mm/hr 0.00 in0.0 mm
05:00 AM 44.2°F6.8°C 42.3°F5.7°C 93% Calm Calm -- 29.89 in1012.2 mb 0.00 in0.0 mm 0.00 in/hr0.0 mm/hr 0.00 in0.0 mm
05:10 AM 44.3°F6.8°C 42.7°F5.9°C 94% Calm Calm -- 29.89 in1012.2 mb 0.00 in0.0 mm 0.00 in/hr0.0 mm/hr 0.00 in0.0 mm
05:20 AM 44.4°F6.9°C 42.8°F6.0°C 94% Calm Calm -- 29.88 in1011.9 mb 0.00 in0.0 mm 0.00 in/hr0.0 mm/hr 0.00 in0.0 mm
05:30 AM 44.5°F6.9°C 42.9°F6.1°C 94% Calm Calm -- 29.88 in1011.9 mb 0.00 in0.0 mm 0.00 in/hr0.0 mm/hr 0.00 in0.0 mm
05:40 AM 44.6°F7.0°C 43.0°F6.1°C 94% Calm Calm -- 29.88 in1011.9 mb 0.00 in0.0 mm 0.00 in/hr0.0 mm/hr 0.00 in0.0 mm
05:50 AM 44.6°F7.0°C 43.0°F6.1°C 94% Calm Calm -- 29.87 in1011.5 mb 0.00 in0.0 mm 0.00 in/hr0.0 mm/hr 0.00 in0.0 mm
06:00 AM 44.7°F7.1°C 43.1°F6.2°C 94% Calm Calm -- 29.87 in1011.5 mb 0.00 in0.0 mm 0.00 in/hr0.0 mm/hr 0.00 in0.0 mm
06:10 AM 44.7°F7.1°C 43.1°F6.2°C 94% Calm Calm -- 29.87 in1011.5 mb 0.00 in0.0 mm 0.00 in/hr0.0 mm/hr 0.00 in0.0 mm
06:20 AM 44.7°F7.1°C 43.1°F6.2°C 94% Calm Calm -- 29.87 in1011.5 mb 0.00 in0.0 mm 0.00 in/hr0.0 mm/hr 0.00 in0.0 mm
06:30 AM 44.7°F7.1°C 43.1°F6.2°C 94% Calm Calm -- 29.88 in1011.9 mb 0.00 in0.0 mm 0.00 in/hr0.0 mm/hr 0.00 in0.0 mm
06:40 AM 44.7°F7.1°C 43.1°F6.2°C 94% Calm Calm -- 29.88 in1011.9 mb 0.00 in0.0 mm 0.00 in/hr0.0 mm/hr 0.00 in0.0 mm
06:50 AM 44.9°F7.2°C 43.3°F6.3°C 94% Calm Calm -- 29.87 in1011.5 mb 0.00 in0.0 mm 0.00 in/hr0.0 mm/hr 0.00 in0.0 mm
07:00 AM 45.0°F7.2°C 43.4°F6.3°C 94% Calm Calm 1.0 mph1.6 kmh 29.87 in1011.5 mb 0.00 in0.0 mm 0.00 in/hr0.0 mm/hr 0.00 in0.0 mm
07:10 AM 45.0°F7.2°C 43.4°F6.3°C 94% Calm Calm -- 29.87 in1011.5 mb 0.00 in0.0 mm 0.00 in/hr0.0 mm/hr 0.00 in0.0 mm
07:20 AM 45.1°F7.3°C 43.5°F6.4°C 94% Calm Calm -- 29.87 in1011.5 mb 0.00 in0.0 mm 0.00 in/hr0.0 mm/hr 0.00 in0.0 mm
07:30 AM 45.2°F7.3°C 43.6°F6.4°C 94% Calm Calm 1.0 mph1.6 kmh 29.87 in1011.5 mb 0.00 in0.0 mm 0.00 in/hr0.0 mm/hr 0.00 in0.0 mm
07:40 AM 45.4°F7.4°C 43.8°F6.6°C 94% Calm Calm -- 29.87 in1011.5 mb 0.00 in0.0 mm 0.00 in/hr0.0 mm/hr 0.00 in0.0 mm
07:50 AM 45.6°F7.6°C 44.3°F6.8°C 95% Calm Calm 1.0 mph1.6 kmh 29.88 in1011.9 mb 0.00 in0.0 mm 0.00 in/hr0.0 mm/hr 0.00 in0.0 mm
08:00 AM 45.7°F7.6°C 44.4°F6.9°C 95% Calm Calm -- 29.87 in1011.5 mb 0.00 in0.0 mm 0.00 in/hr0.0 mm/hr 0.00 in0.0 mm
08:10 AM 45.9°F7.7°C 44.5°F6.9°C 95% Calm Calm 1.0 mph1.6 kmh 29.87 in1011.5 mb 0.00 in0.0 mm 0.00 in/hr0.0 mm/hr 0.00 in0.0 mm
08:20 AM 46.2°F7.9°C 44.8°F7.1°C 95% Calm Calm -- 29.88 in1011.9 mb 0.00 in0.0 mm 0.00 in/hr0.0 mm/hr 0.00 in0.0 mm
08:30 AM 46.6°F8.1°C 45.2°F7.3°C 95% Calm Calm 1.0 mph1.6 kmh 29.88 in1011.9 mb 0.00 in0.0 mm 0.00 in/hr0.0 mm/hr 0.00 in0.0 mm
08:40 AM 46.9°F8.3°C 45.5°F7.5°C 95% Calm Calm 2.0 mph3.2 kmh 29.89 in1012.2 mb 0.01 in0.3 mm 0.06 in/hr1.5 mm/hr 0.01 in0.3 mm
08:50 AM 47.3°F8.5°C 45.9°F7.7°C 95% Calm Calm 1.0 mph1.6 kmh 29.89 in1012.2 mb 0.02 in0.5 mm 0.06 in/hr1.5 mm/hr 0.02 in0.5 mm
09:00 AM 47.7°F8.7°C 46.3°F7.9°C 95% Calm Calm -- 29.88 in1011.9 mb 0.04 in1.0 mm 0.02 in/hr0.5 mm/hr 0.04 in1.0 mm
09:10 AM 47.9°F8.8°C 46.5°F8.1°C 95% Calm Calm 2.0 mph3.2 kmh 29.89 in1012.2 mb 0.04 in1.0 mm 0.00 in/hr0.0 mm/hr 0.04 in1.0 mm
09:20 AM 48.1°F8.9°C 46.7°F8.2°C 95% Calm Calm -- 29.89 in1012.2 mb 0.04 in1.0 mm 0.00 in/hr0.0 mm/hr 0.04 in1.0 mm
09:30 AM 48.4°F9.1°C 47.0°F8.3°C 95% Calm Calm 1.0 mph1.6 kmh 29.90 in1012.5 mb 0.04 in1.0 mm 0.00 in/hr0.0 mm/hr 0.04 in1.0 mm
09:40 AM 48.7°F9.3°C 47.3°F8.5°C 95% Calm Calm -- 29.89 in1012.2 mb 0.03 in0.8 mm 0.00 in/hr0.0 mm/hr 0.04 in1.0 mm
09:50 AM 49.0°F9.4°C 47.9°F8.8°C 96% Calm Calm -- 29.89 in1012.2 mb 0.02 in0.5 mm 0.00 in/hr0.0 mm/hr 0.04 in1.0 mm
10:00 AM 49.3°F9.6°C 48.2°F9.0°C 96% Calm Calm -- 29.89 in1012.2 mb 0.01 in0.3 mm 0.00 in/hr0.0 mm/hr 0.05 in1.3 mm
10:10 AM 49.7°F9.8°C 48.6°F9.2°C 96% Calm Calm -- 29.89 in1012.2 mb 0.01 in0.3 mm 0.00 in/hr0.0 mm/hr 0.05 in1.3 mm
10:20 AM 50.2°F10.1°C 49.1°F9.5°C 96% Calm Calm -- 29.88 in1011.9 mb 0.01 in0.3 mm 0.00 in/hr0.0 mm/hr 0.05 in1.3 mm
10:30 AM 51.0°F10.6°C 49.9°F9.9°C 96% Calm Calm 1.0 mph1.6 kmh 29.88 in1011.9 mb 0.01 in0.3 mm 0.00 in/hr0.0 mm/hr 0.05 in1.3 mm
10:40 AM 52.1°F11.2°C 51.0°F10.6°C 96% Calm Calm 3.0 mph4.8 kmh 29.88 in1011.9 mb 0.01 in0.3 mm 0.00 in/hr0.0 mm/hr 0.05 in1.3 mm
10:50 AM 52.7°F11.5°C 51.6°F10.9°C 96% 1.0 mph NNE1.6 kmh NNE 4.0 mph6.4 kmh 29.87 in1011.5 mb 0.01 in0.3 mm 0.00 in/hr0.0 mm/hr 0.05 in1.3 mm
11:00 AM 53.1°F11.7°C 52.0°F11.1°C 96% 3.0 mph N4.8 kmh N 6.0 mph9.7 kmh 29.87 in1011.5 mb 0.00 in0.0 mm 0.00 in/hr0.0 mm/hr 0.05 in1.3 mm
11:10 AM 53.6°F12.0°C 52.5°F11.4°C 96% Calm Calm 3.0 mph4.8 kmh 29.87 in1011.5 mb 0.00 in0.0 mm 0.00 in/hr0.0 mm/hr 0.05 in1.3 mm
11:20 AM 54.1°F12.3°C 53.0°F11.7°C 96% Calm Calm 3.0 mph4.8 kmh 29.87 in1011.5 mb 0.00 in0.0 mm 0.00 in/hr0.0 mm/hr 0.05 in1.3 mm
11:30 AM 54.6°F12.6°C 53.5°F11.9°C 96% Calm Calm 3.0 mph4.8 kmh 29.87 in1011.5 mb 0.00 in0.0 mm 0.00 in/hr0.0 mm/hr 0.05 in1.3 mm
11:40 AM 54.9°F12.7°C 53.5°F11.9°C 95% Calm Calm 1.0 mph1.6 kmh 29.87 in1011.5 mb 0.00 in0.0 mm 0.00 in/hr0.0 mm/hr 0.05 in1.3 mm
11:50 AM 55.3°F12.9°C 53.6°F12.0°C 94% Calm Calm 1.0 mph1.6 kmh 29.87 in1011.5 mb 0.00 in0.0 mm 0.00 in/hr0.0 mm/hr 0.05 in1.3 mm
12:00 PM 56.0°F13.3°C 54.3°F12.4°C 94% Calm Calm 3.0 mph4.8 kmh 29.86 in1011.2 mb 0.00 in0.0 mm 0.00 in/hr0.0 mm/hr 0.05 in1.3 mm
12:10 PM 56.4°F13.6°C 54.4°F12.4°C 93% Calm Calm 3.0 mph4.8 kmh 29.86 in1011.2 mb 0.00 in0.0 mm 0.00 in/hr0.0 mm/hr 0.05 in1.3 mm
12:20 PM 56.9°F13.8°C 54.3°F12.4°C 91% Calm Calm 5.0 mph8.0 kmh 29.85 in1010.8 mb 0.00 in0.0 mm 0.00 in/hr0.0 mm/hr 0.05 in1.3 mm
12:30 PM 57.1°F13.9°C 53.9°F12.2°C 89% Calm Calm 4.0 mph6.4 kmh 29.85 in1010.8 mb 0.00 in0.0 mm 0.00 in/hr0.0 mm/hr 0.05 in1.3 mm
12:40 PM 57.6°F14.2°C 54.1°F12.3°C 88% Calm Calm 4.0 mph6.4 kmh 29.84 in1010.5 mb 0.00 in0.0 mm 0.00 in/hr0.0 mm/hr 0.05 in1.3 mm
12:50 PM 58.0°F14.4°C 53.8°F12.1°C 86% Calm Calm 3.0 mph4.8 kmh 29.84 in1010.5 mb 0.00 in0.0 mm 0.00 in/hr0.0 mm/hr 0.05 in1.3 mm
01:00 PM 58.7°F14.8°C 54.5°F12.5°C 86% Calm Calm 2.0 mph3.2 kmh 29.83 in1010.2 mb 0.00 in0.0 mm 0.00 in/hr0.0 mm/hr 0.05 in1.3 mm
01:10 PM 59.0°F15.0°C 54.2°F12.3°C 84% Calm Calm 3.0 mph4.8 kmh 29.83 in1010.2 mb 0.00 in0.0 mm 0.00 in/hr0.0 mm/hr 0.05 in1.3 mm
01:20 PM 59.6°F15.3°C 54.1°F12.3°C 82% Calm Calm 6.0 mph9.7 kmh 29.83 in1010.2 mb 0.00 in0.0 mm 0.00 in/hr0.0 mm/hr 0.05 in1.3 mm
01:30 PM 60.5°F15.8°C 54.6°F12.6°C 81% Calm Calm 3.0 mph4.8 kmh 29.82 in1009.8 mb 0.00 in0.0 mm 0.00 in/hr0.0 mm/hr 0.05 in1.3 mm
01:40 PM 61.6°F16.4°C 54.7°F12.6°C 78% Calm Calm 3.0 mph4.8 kmh 29.82 in1009.8 mb 0.00 in0.0 mm 0.00 in/hr0.0 mm/hr 0.05 in1.3 mm
01:50 PM 62.0°F16.7°C 54.7°F12.6°C 77% Calm Calm 5.0 mph8.0 kmh 29.82 in1009.8 mb 0.00 in0.0 mm 0.00 in/hr0.0 mm/hr 0.05 in1.3 mm
02:00 PM 62.0°F16.7°C 54.0°F12.2°C 75% Calm Calm 2.0 mph3.2 kmh 29.81 in1009.5 mb 0.00 in0.0 mm 0.00 in/hr0.0 mm/hr 0.05 in1.3 mm
02:10 PM 62.1°F16.7°C 54.5°F12.5°C 76% Calm Calm 2.0 mph3.2 kmh 29.81 in1009.5 mb 0.00 in0.0 mm 0.00 in/hr0.0 mm/hr 0.05 in1.3 mm
02:20 PM 62.4°F16.9°C 55.1°F12.8°C 77% Calm Calm 2.0 mph3.2 kmh 29.81 in1009.5 mb 0.00 in0.0 mm 0.00 in/hr0.0 mm/hr 0.05 in1.3 mm
02:30 PM 62.5°F16.9°C 54.5°F12.5°C 75% Calm Calm 3.0 mph4.8 kmh 29.80 in1009.1 mb 0.00 in0.0 mm 0.00 in/hr0.0 mm/hr 0.05 in1.3 mm
02:40 PM 62.6°F17.0°C 54.2°F12.3°C 74% Calm Calm 6.0 mph9.7 kmh 29.80 in1009.1 mb 0.00 in0.0 mm 0.00 in/hr0.0 mm/hr 0.05 in1.3 mm
02:50 PM 62.5°F16.9°C 53.7°F12.1°C 73% Calm Calm 4.0 mph6.4 kmh 29.80 in1009.1 mb 0.00 in0.0 mm 0.00 in/hr0.0 mm/hr 0.05 in1.3 mm
03:00 PM 62.2°F16.8°C 53.1°F11.7°C 72% Calm Calm 9.0 mph14.5 kmh 29.80 in1009.1 mb 0.00 in0.0 mm 0.00 in/hr0.0 mm/hr 0.05 in1.3 mm
03:10 PM 61.9°F16.6°C 52.8°F11.6°C 72% Calm Calm 9.0 mph14.5 kmh 29.81 in1009.5 mb 0.00 in0.0 mm 0.00 in/hr0.0 mm/hr 0.05 in1.3 mm
03:20 PM 61.6°F16.4°C 52.1°F11.2°C 71% 2.0 mph E3.2 kmh E 5.0 mph8.0 kmh 29.81 in1009.5 mb 0.00 in0.0 mm 0.00 in/hr0.0 mm/hr 0.05 in1.3 mm
03:30 PM 61.5°F16.4°C 52.8°F11.6°C 73% 2.0 mph NE3.2 kmh NE 7.0 mph11.3 kmh 29.82 in1009.8 mb 0.00 in0.0 mm 0.00 in/hr0.0 mm/hr 0.05 in1.3 mm
03:40 PM 61.2°F16.2°C 52.9°F11.6°C 74% 2.0 mph ESE3.2 kmh ESE 9.0 mph14.5 kmh 29.82 in1009.8 mb 0.00 in0.0 mm 0.00 in/hr0.0 mm/hr 0.05 in1.3 mm
03:50 PM 61.1°F16.2°C 53.1°F11.7°C 75% 3.0 mph ENE4.8 kmh ENE 6.0 mph9.7 kmh 29.81 in1009.5 mb 0.00 in0.0 mm 0.00 in/hr0.0 mm/hr 0.05 in1.3 mm
04:00 PM 61.1°F16.2°C 53.5°F11.9°C 76% 4.0 mph ENE6.4 kmh ENE 11.0 mph17.7 kmh 29.81 in1009.5 mb 0.00 in0.0 mm 0.00 in/hr0.0 mm/hr 0.05 in1.3 mm
04:10 PM 60.9°F16.1°C 53.6°F12.0°C 77% 2.0 mph NE3.2 kmh NE 7.0 mph11.3 kmh 29.81 in1009.5 mb 0.00 in0.0 mm 0.00 in/hr0.0 mm/hr 0.05 in1.3 mm
04:20 PM 60.6°F15.9°C 53.7°F12.1°C 78% 1.0 mph NNE1.6 kmh NNE 13.0 mph20.9 kmh 29.81 in1009.5 mb 0.00 in0.0 mm 0.00 in/hr0.0 mm/hr 0.05 in1.3 mm
04:30 PM 60.4°F15.8°C 53.9°F12.2°C 79% Calm Calm 7.0 mph11.3 kmh 29.81 in1009.5 mb 0.00 in0.0 mm 0.00 in/hr0.0 mm/hr 0.05 in1.3 mm
04:40 PM 60.3°F15.7°C 53.8°F12.1°C 79% 2.0 mph ENE3.2 kmh ENE 7.0 mph11.3 kmh 29.81 in1009.5 mb 0.00 in0.0 mm 0.00 in/hr0.0 mm/hr 0.05 in1.3 mm
04:50 PM 60.1°F15.6°C 53.9°F12.2°C 80% Calm Calm 6.0 mph9.7 kmh 29.81 in1009.5 mb 0.00 in0.0 mm 0.00 in/hr0.0 mm/hr 0.05 in1.3 mm
05:00 PM 59.9°F15.5°C 54.1°F12.3°C 81% 2.0 mph NE3.2 kmh NE 6.0 mph9.7 kmh 29.81 in1009.5 mb 0.00 in0.0 mm 0.00 in/hr0.0 mm/hr 0.05 in1.3 mm
05:10 PM 59.5°F15.3°C 53.7°F12.1°C 81% Calm Calm 6.0 mph9.7 kmh 29.81 in1009.5 mb 0.00 in0.0 mm 0.00 in/hr0.0 mm/hr 0.05 in1.3 mm
05:20 PM 59.1°F15.1°C 53.6°F12.0°C 82% Calm Calm 5.0 mph8.0 kmh 29.82 in1009.8 mb 0.00 in0.0 mm 0.00 in/hr0.0 mm/hr 0.05 in1.3 mm
05:30 PM 59.0°F15.0°C 53.8°F12.1°C 83% Calm Calm 1.0 mph1.6 kmh 29.82 in1009.8 mb 0.00 in0.0 mm 0.00 in/hr0.0 mm/hr 0.05 in1.3 mm
05:40 PM 58.8°F14.9°C 54.0°F12.2°C 84% Calm Calm -- 29.82 in1009.8 mb 0.00 in0.0 mm 0.00 in/hr0.0 mm/hr 0.05 in1.3 mm
05:50 PM 58.4°F14.7°C 53.6°F12.0°C 84% Calm Calm 4.0 mph6.4 kmh 29.82 in1009.8 mb 0.00 in0.0 mm 0.00 in/hr0.0 mm/hr 0.05 in1.3 mm
06:00 PM 58.1°F14.5°C 53.6°F12.0°C 85% Calm Calm 1.0 mph1.6 kmh 29.82 in1009.8 mb 0.00 in0.0 mm 0.00 in/hr0.0 mm/hr 0.05 in1.3 mm
06:10 PM 57.9°F14.4°C 53.4°F11.9°C 85% Calm Calm -- 29.83 in1010.2 mb 0.00 in0.0 mm 0.00 in/hr0.0 mm/hr 0.05 in1.3 mm
06:20 PM 57.7°F14.3°C 53.5°F11.9°C 86% Calm Calm 1.0 mph1.6 kmh 29.83 in1010.2 mb 0.00 in0.0 mm 0.00 in/hr0.0 mm/hr 0.05 in1.3 mm
06:30 PM 57.4°F14.1°C 53.3°F11.8°C 86% Calm Calm 1.0 mph1.6 kmh 29.84 in1010.5 mb 0.00 in0.0 mm 0.00 in/hr0.0 mm/hr 0.05 in1.3 mm
06:40 PM 57.2°F14.0°C 53.4°F11.9°C 87% Calm Calm 1.0 mph1.6 kmh 29.85 in1010.8 mb 0.00 in0.0 mm 0.00 in/hr0.0 mm/hr 0.05 in1.3 mm
06:50 PM 56.9°F13.8°C 53.4°F11.9°C 88% Calm Calm -- 29.85 in1010.8 mb 0.00 in0.0 mm 0.00 in/hr0.0 mm/hr 0.05 in1.3 mm
07:00 PM 56.6°F13.7°C 53.1°F11.7°C 88% Calm Calm 1.0 mph1.6 kmh 29.85 in1010.8 mb 0.00 in0.0 mm 0.00 in/hr0.0 mm/hr 0.05 in1.3 mm
07:10 PM 56.5°F13.6°C 53.0°F11.7°C 88% Calm Calm -- 29.86 in1011.2 mb 0.00 in0.0 mm 0.00 in/hr0.0 mm/hr 0.05 in1.3 mm
07:20 PM 56.3°F13.5°C 52.8°F11.6°C 88% Calm Calm -- 29.86 in1011.2 mb 0.00 in0.0 mm 0.00 in/hr0.0 mm/hr 0.05 in1.3 mm
07:30 PM 56.2°F13.4°C 53.0°F11.7°C 89% Calm Calm -- 29.86 in1011.2 mb 0.01 in0.3 mm 0.06 in/hr1.5 mm/hr 0.06 in1.5 mm
07:40 PM 56.0°F13.3°C 53.1°F11.7°C 90% Calm Calm 1.0 mph1.6 kmh 29.87 in1011.5 mb 0.01 in0.3 mm 0.00 in/hr0.0 mm/hr 0.06 in1.5 mm
07:50 PM 55.8°F13.2°C 52.9°F11.6°C 90% Calm Calm -- 29.86 in1011.2 mb 0.01 in0.3 mm 0.00 in/hr0.0 mm/hr 0.06 in1.5 mm
08:00 PM 55.6°F13.1°C 53.0°F11.7°C 91% Calm Calm -- 29.87 in1011.5 mb 0.01 in0.3 mm 0.00 in/hr0.0 mm/hr 0.06 in1.5 mm
08:10 PM 55.4°F13.0°C 52.8°F11.6°C 91% Calm Calm -- 29.87 in1011.5 mb 0.02 in0.5 mm 0.06 in/hr1.5 mm/hr 0.07 in1.8 mm
08:20 PM 55.3°F12.9°C 52.7°F11.5°C 91% Calm Calm -- 29.87 in1011.5 mb 0.03 in0.8 mm 0.06 in/hr1.5 mm/hr 0.08 in2.0 mm
08:30 PM 55.1°F12.8°C 52.8°F11.6°C 92% Calm Calm -- 29.87 in1011.5 mb 0.03 in0.8 mm 0.00 in/hr0.0 mm/hr 0.09 in2.3 mm
08:40 PM 55.0°F12.8°C 52.7°F11.5°C 92% Calm Calm -- 29.87 in1011.5 mb 0.04 in1.0 mm 0.06 in/hr1.5 mm/hr 0.10 in2.5 mm
08:50 PM 54.9°F12.7°C 52.6°F11.4°C 92% Calm Calm 1.0 mph1.6 kmh 29.88 in1011.9 mb 0.05 in1.3 mm 0.06 in/hr1.5 mm/hr 0.11 in2.8 mm
09:00 PM 54.7°F12.6°C 52.7°F11.5°C 93% Calm Calm 2.0 mph3.2 kmh 29.88 in1011.9 mb 0.07 in1.8 mm 0.02 in/hr0.5 mm/hr 0.13 in3.3 mm
09:10 PM 54.6°F12.6°C 52.6°F11.4°C 93% 1.0 mph NE1.6 kmh NE 5.0 mph8.0 kmh 29.87 in1011.5 mb 0.07 in1.8 mm 0.00 in/hr0.0 mm/hr 0.14 in3.6 mm
09:20 PM 54.5°F12.5°C 52.5°F11.4°C 93% Calm Calm 3.0 mph4.8 kmh 29.88 in1011.9 mb 0.07 in1.8 mm 0.00 in/hr0.0 mm/hr 0.15 in3.8 mm
09:30 PM 54.3°F12.4°C 52.3°F11.3°C 93% Calm Calm 2.0 mph3.2 kmh 29.88 in1011.9 mb 0.07 in1.8 mm 0.00 in/hr0.0 mm/hr 0.16 in4.1 mm
09:40 PM 54.2°F12.3°C 52.5°F11.4°C 94% Calm Calm 2.0 mph3.2 kmh 29.88 in1011.9 mb 0.06 in1.5 mm 0.00 in/hr0.0 mm/hr 0.16 in4.1 mm
09:50 PM 54.1°F12.3°C 52.4°F11.3°C 94% Calm Calm 1.0 mph1.6 kmh 29.88 in1011.9 mb 0.05 in1.3 mm 0.00 in/hr0.0 mm/hr 0.16 in4.1 mm
10:00 PM 53.9°F12.2°C 52.2°F11.2°C 94% Calm Calm 2.0 mph3.2 kmh 29.88 in1011.9 mb 0.03 in0.8 mm 0.00 in/hr0.0 mm/hr 0.16 in4.1 mm
10:10 PM 53.8°F12.1°C 52.1°F11.2°C 94% Calm Calm 1.0 mph1.6 kmh 29.88 in1011.9 mb 0.03 in0.8 mm 0.00 in/hr0.0 mm/hr 0.17 in4.3 mm
10:20 PM 53.7°F12.1°C 52.0°F11.1°C 94% Calm Calm -- 29.88 in1011.9 mb 0.02 in0.5 mm 0.00 in/hr0.0 mm/hr 0.17 in4.3 mm
10:30 PM 53.5°F11.9°C 51.8°F11.0°C 94% Calm Calm -- 29.88 in1011.9 mb 0.01 in0.3 mm 0.00 in/hr0.0 mm/hr 0.17 in4.3 mm
10:40 PM 53.4°F11.9°C 51.7°F10.9°C 94% Calm Calm -- 29.88 in1011.9 mb 0.01 in0.3 mm 0.00 in/hr0.0 mm/hr 0.17 in4.3 mm
10:50 PM 53.2°F11.8°C 51.5°F10.8°C 94% Calm Calm -- 29.89 in1012.2 mb 0.01 in0.3 mm 0.00 in/hr0.0 mm/hr 0.17 in4.3 mm
11:00 PM 53.0°F11.7°C 51.3°F10.7°C 94% Calm Calm 2.0 mph3.2 kmh 29.89 in1012.2 mb 0.01 in0.3 mm 0.00 in/hr0.0 mm/hr 0.17 in4.3 mm
11:10 PM 52.8°F11.6°C 51.1°F10.6°C 94% Calm Calm 2.0 mph3.2 kmh 29.90 in1012.5 mb 0.00 in0.0 mm 0.00 in/hr0.0 mm/hr 0.17 in4.3 mm
11:20 PM 52.7°F11.5°C 51.0°F10.6°C 94% Calm Calm -- 29.89 in1012.2 mb 0.00 in0.0 mm 0.00 in/hr0.0 mm/hr 0.17 in4.3 mm
11:30 PM 52.6°F11.4°C 51.2°F10.7°C 95% Calm Calm -- 29.90 in1012.5 mb 0.00 in0.0 mm 0.00 in/hr0.0 mm/hr 0.17 in4.3 mm
11:40 PM 52.4°F11.3°C 51.0°F10.6°C 95% Calm Calm -- 29.90 in1012.5 mb 0.00 in0.0 mm 0.00 in/hr0.0 mm/hr 0.17 in4.3 mm
11:50 PM 52.3°F11.3°C 50.6°F10.3°C 94% Calm Calm -- 29.89 in1012.2 mb 0.00 in0.0 mm 0.00 in/hr0.0 mm/hr 0.17 in4.3 mm